Wheeling, Minnesota
Current Conditions -  °F | °C
As of 1:34 AM on Thursday 23 Oct 2014 (Local Time) from KSYN Reporting Station
Overcast Overcast  
Wind Chill: 55°   Ceiling: 6500
Heat Index: 55°   Visibility: 10mi
Dew Point: 42°   Wind: 8mph
Humidity: 60%   Direction: 190°S
Pressure: 30.02"   Gusts: NA
Location:  44.3494°N, 93.0986°W
Report Text: KSYN 230634Z AUTO 19007KT 10SM SCT032 BKN065 OVC080 13/06 A3002 RMK AO2 T01300055
Loading
Personal Weather Stations






























Interactive Weather Map
Tropical Storm Tracking
New forecast layout! Learn more

10-Day Weather Forecast

Advertisements
Track Severe Weather on mobile